Time;durP1;ratioP1;P1;durP2;ratioP2;P2;SDS_P1;SDS_P2;PMS_P1;PMS_P2;Temp;Humidity;BMP_temperature;BMP_pressure;BME280_temperature;BME280_humidity;BME280_pressure;Samples;Min_cycle;Max_cycle;Signal;HPM_P1;HPM_P2
2021/07/13 00:00:29;;;;;;;10.63;6.60;;;;;;;20.55;66.46;99765.00;10317234;28;20239;-77
2021/07/13 00:05:33;;;;;;;8.35;6.38;;;;;;;20.64;66.12;99768.38;10295951;28;21315;-76
2021/07/13 00:10:40;;;;;;;10.52;6.90;;;;;;;20.66;66.25;99772.59;10312339;28;20231;-77
2021/07/13 00:15:45;;;;;;;8.35;6.25;;;;;;;20.61;66.53;99772.34;10313712;28;20313;-77
2021/07/13 00:20:48;;;;;;;9.10;6.80;;;;;;;20.51;67.01;99771.91;10313818;28;20227;-76
2021/07/13 00:25:52;;;;;;;7.80;6.13;;;;;;;20.49;67.33;99774.00;10315801;28;20235;-76
2021/07/13 00:30:55;;;;;;;10.45;6.13;;;;;;;20.10;68.51;99772.72;10314714;28;20758;-76
2021/07/13 00:35:58;;;;;;;9.52;6.80;;;;;;;19.98;69.17;99772.47;10313594;28;20317;-76
2021/07/13 00:41:02;;;;;;;9.88;6.95;;;;;;;20.01;69.36;99754.84;10313462;28;20246;-76
2021/07/13 00:46:05;;;;;;;7.97;6.45;;;;;;;19.99;69.04;99763.22;10313605;28;20239;-76
2021/07/13 00:51:09;;;;;;;11.38;6.75;;;;;;;19.92;69.31;99758.81;10310590;28;20241;-75
2021/07/13 00:56:14;;;;;;;11.40;7.10;;;;;;;19.80;69.87;99753.91;10311479;28;20716;-76
2021/07/13 01:01:17;;;;;;;10.80;6.47;;;;;;;19.60;70.56;99761.94;10293044;28;20242;-76
2021/07/13 01:06:22;;;;;;;10.77;6.60;;;;;;;19.70;70.91;99764.31;10310950;28;20267;-76
2021/07/13 01:11:35;;;;;;;9.20;6.85;;;;;;;19.80;70.36;99762.09;10311596;28;20631;-76
2021/07/13 01:16:46;;;;;;;9.15;6.60;;;;;;;19.79;70.26;99754.09;10308915;28;20234;-76
2021/07/13 01:21:55;;;;;;;11.55;7.25;;;;;;;19.43;71.64;99757.81;10311996;28;20338;-76
2021/07/13 01:27:34;;;;;;;8.77;6.78;;;;;;;19.53;71.51;99754.72;10312598;28;20235;-76
2021/07/13 01:32:41;;;;;;;8.35;6.57;;;;;;;19.45;71.47;99755.72;10310015;28;20238;-75
2021/07/13 01:37:48;;;;;;;9.98;6.60;;;;;;;19.41;71.89;99748.97;10312079;28;20797;-75
2021/07/13 01:42:52;;;;;;;8.07;6.45;;;;;;;19.34;71.96;99742.66;10310746;28;20235;-75
2021/07/13 01:47:57;;;;;;;9.88;7.32;;;;;;;19.23;71.99;99741.31;10310530;28;20246;-76
2021/07/13 01:53:01;;;;;;;7.68;6.70;;;;;;;19.13;72.47;99747.06;10311940;28;20246;-76
2021/07/13 01:58:04;;;;;;;8.77;6.63;;;;;;;19.04;72.60;99742.81;10293279;28;20245;-76
2021/07/13 02:03:10;;;;;;;11.60;6.60;;;;;;;19.02;72.96;99739.44;10310328;28;20245;-76
2021/07/13 02:08:14;;;;;;;9.55;6.82;;;;;;;18.99;72.83;99737.09;10309832;28;20242;-76
2021/07/13 02:13:18;;;;;;;11.32;7.18;;;;;;;18.86;73.27;99732.38;10313946;28;20711;-76
2021/07/13 02:18:22;;;;;;;8.52;6.80;;;;;;;18.85;73.70;99732.59;10308772;28;20313;-76
2021/07/13 02:23:25;;;;;;;7.70;6.35;;;;;;;18.74;73.72;99731.19;10313422;28;20243;-75
2021/07/13 02:28:30;;;;;;;9.25;7.05;;;;;;;18.69;73.83;99730.91;10280924;28;20251;-76
2021/07/13 02:33:44;;;;;;;10.15;7.20;;;;;;;18.65;73.75;99735.91;10217172;28;20657;-76
2021/07/13 02:38:48;;;;;;;10.07;7.50;;;;;;;18.67;73.81;99732.97;10289149;28;20239;-76
2021/07/13 02:43:53;;;;;;;10.02;7.65;;;;;;;18.68;73.87;99740.13;10290771;28;20239;-76
2021/07/13 02:48:59;;;;;;;9.00;7.65;;;;;;;18.83;73.55;99732.75;10311162;28;20246;-76
2021/07/13 02:54:02;;;;;;;8.85;7.03;;;;;;;18.81;73.18;99729.38;10309480;28;20245;-76
2021/07/13 02:59:07;;;;;;;8.27;7.20;;;;;;;18.81;73.23;99726.66;10309877;28;20250;-75
2021/07/13 03:04:11;;;;;;;10.15;7.03;;;;;;;18.85;73.48;99729.88;10306806;28;20231;-76
2021/07/13 03:09:15;;;;;;;8.35;7.15;;;;;;;18.83;74.21;99724.59;10308493;28;20235;-76
2021/07/13 03:14:19;;;;;;;9.38;7.55;;;;;;;19.00;73.86;99717.84;10309100;28;20239;-75
2021/07/13 03:19:23;;;;;;;10.02;6.90;;;;;;;19.05;73.45;99716.44;10309071;28;20250;-75
2021/07/13 03:24:27;;;;;;;10.23;7.38;;;;;;;19.15;73.34;99712.34;10307489;28;20805;-75
2021/07/13 03:29:32;;;;;;;10.70;7.90;;;;;;;19.11;73.23;99716.47;10309655;28;20239;-75
2021/07/13 03:34:36;;;;;;;10.45;7.65;;;;;;;19.15;73.31;99723.22;10306949;28;20788;-76
2021/07/13 03:39:40;;;;;;;14.85;8.07;;;;;;;19.19;73.20;99708.16;10307354;28;20444;-76
2021/07/13 03:44:43;;;;;;;10.00;7.50;;;;;;;19.21;73.22;99710.72;10307163;28;20339;-75
2021/07/13 03:49:49;;;;;;;9.05;7.03;;;;;;;19.32;73.08;99714.78;10307672;28;20274;-76
2021/07/13 03:54:53;;;;;;;9.40;7.60;;;;;;;19.45;72.90;99717.59;10307000;28;20246;-76
2021/07/13 03:59:56;;;;;;;9.55;7.00;;;;;;;19.60;72.46;99715.63;10306400;28;20648;-76
2021/07/13 04:05:00;;;;;;;11.38;7.68;;;;;;;19.66;72.25;99713.97;10307919;28;20239;-76
2021/07/13 04:10:04;;;;;;;13.45;7.57;;;;;;;19.62;72.55;99719.00;10312583;28;20732;-76
2021/07/13 04:15:08;;;;;;;10.55;7.82;;;;;;;19.61;72.36;99720.06;10308801;28;20251;-76
2021/07/13 04:20:13;;;;;;;11.98;7.38;;;;;;;19.68;71.89;99726.38;10308013;28;20230;-76
2021/07/13 04:25:16;;;;;;;14.80;8.07;;;;;;;19.70;71.45;99728.91;10305701;28;20292;-75
2021/07/13 04:30:19;;;;;;;10.07;7.97;;;;;;;19.66;71.09;99720.31;10306450;28;20689;-76
2021/07/13 04:35:24;;;;;;;10.43;6.93;;;;;;;19.42;71.80;99723.44;10308327;28;20376;-74
2021/07/13 04:40:27;;;;;;;10.30;7.70;;;;;;;19.30;72.58;99720.41;10307497;28;20726;-75
2021/07/13 04:45:30;;;;;;;8.55;6.38;;;;;;;19.51;72.54;99721.41;10297474;28;21456;-76
2021/07/13 04:50:34;;;;;;;11.25;6.95;;;;;;;19.56;71.65;99718.97;10353576;28;20234;-75
2021/07/13 04:55:37;;;;;;;11.45;7.53;;;;;;;19.29;72.36;99720.63;10333919;28;21750;-75
2021/07/13 05:00:40;;;;;;;7.28;6.50;;;;;;;19.13;73.24;99719.00;10352584;28;20226;-76
2021/07/13 05:05:44;;;;;;;10.45;7.25;;;;;;;19.07;73.26;99717.94;10353726;28;21250;-76
2021/07/13 05:10:47;;;;;;;9.13;6.97;;;;;;;19.05;73.57;99730.88;10351697;28;20245;-75
2021/07/13 05:15:50;;;;;;;11.27;6.70;;;;;;;19.29;73.99;99720.63;10351564;28;20643;-76
2021/07/13 05:20:58;;;;;;;11.80;7.75;;;;;;;19.28;73.05;99721.63;10355368;28;20241;-76
2021/07/13 05:26:01;;;;;;;11.52;7.57;;;;;;;19.19;74.09;99721.78;10352783;28;20242;-76
2021/07/13 05:31:04;;;;;;;11.68;7.55;;;;;;;19.24;73.80;99719.31;10353900;28;20629;-74
2021/07/13 05:36:08;;;;;;;11.43;7.43;;;;;;;19.34;73.94;99726.31;10353343;28;20287;-76
2021/07/13 05:41:11;;;;;;;9.88;7.93;;;;;;;19.27;73.90;99714.53;10353651;28;20230;-74
2021/07/13 05:46:14;;;;;;;10.45;7.75;;;;;;;19.38;73.94;99711.25;10353443;28;20242;-73
2021/07/13 05:51:19;;;;;;;11.93;7.70;;;;;;;19.41;73.16;99708.13;10337046;28;20234;-74
2021/07/13 05:56:22;;;;;;;19.75;8.85;;;;;;;19.38;73.45;99720.25;10343313;28;20249;-74
2021/07/13 06:01:25;;;;;;;9.77;7.68;;;;;;;19.45;76.57;99723.88;10344861;28;20234;-73
2021/07/13 06:06:29;;;;;;;11.32;8.68;;;;;;;19.36;76.63;99729.66;10352833;28;20309;-74
2021/07/13 06:11:32;;;;;;;10.10;8.18;;;;;;;19.19;77.81;99735.41;10320540;28;20242;-73
2021/07/13 06:16:35;;;;;;;12.55;8.90;;;;;;;19.21;78.41;99736.03;10295908;28;20230;-73
2021/07/13 06:21:40;;;;;;;12.88;9.18;;;;;;;19.24;77.81;99742.97;10310832;28;20246;-73
2021/07/13 06:26:42;;;;;;;14.13;9.00;;;;;;;19.29;78.07;99745.13;10308852;28;20724;-74
2021/07/13 06:31:45;;;;;;;12.25;9.23;;;;;;;19.24;77.15;99760.16;10311935;28;20258;-74
2021/07/13 06:36:50;;;;;;;14.60;10.50;;;;;;;19.16;77.71;99756.72;10309650;28;20250;-74
2021/07/13 06:41:54;;;;;;;15.25;10.15;;;;;;;19.21;78.17;99768.72;10290185;28;20239;-74
2021/07/13 06:46:57;;;;;;;14.25;10.05;;;;;;;19.35;78.63;99766.13;10311728;28;20250;-74
2021/07/13 06:52:01;;;;;;;13.63;10.90;;;;;;;19.44;78.27;99759.47;10309699;28;20258;-74
2021/07/13 06:57:04;;;;;;;14.35;9.55;;;;;;;19.51;78.54;99763.09;10274908;28;20235;-74
2021/07/13 07:02:09;;;;;;;13.93;9.23;;;;;;;19.58;77.98;99760.44;10296814;28;20313;-74
2021/07/13 07:07:14;;;;;;;14.05;9.15;;;;;;;19.64;77.76;99765.97;10308289;28;20239;-73
2021/07/13 07:12:17;;;;;;;11.85;8.88;;;;;;;19.61;77.39;99758.19;10292341;28;20238;-74
2021/07/13 07:17:20;;;;;;;13.73;10.15;;;;;;;19.86;77.58;99763.16;10309294;28;20235;-74
2021/07/13 07:22:24;;;;;;;15.23;10.27;;;;;;;19.95;76.18;99761.13;10308465;28;20234;-74
2021/07/13 07:27:27;;;;;;;13.20;9.80;;;;;;;19.85;75.43;99766.91;10288989;28;20238;-74
2021/07/13 07:32:30;;;;;;;13.35;9.60;;;;;;;19.88;75.46;99764.66;10309398;28;20226;-75
2021/07/13 07:37:36;;;;;;;16.05;9.68;;;;;;;19.87;75.07;99764.84;10308786;28;20245;-73
2021/07/13 07:42:39;;;;;;;13.27;10.15;;;;;;;19.83;74.76;99755.41;10313752;28;20734;-75
2021/07/13 07:47:42;;;;;;;16.27;9.75;;;;;;;19.75;74.41;99750.13;10338801;28;20234;-74
2021/07/13 07:52:47;;;;;;;15.10;9.60;;;;;;;19.68;74.50;99755.50;10364454;28;20241;-75
2021/07/13 07:57:50;;;;;;;14.02;9.85;;;;;;;19.57;74.58;99756.88;10349806;28;20246;-75
2021/07/13 08:02:53;;;;;;;13.63;10.18;;;;;;;19.18;76.25;99754.66;10331006;28;20719;-75
2021/07/13 08:07:57;;;;;;;14.70;10.02;;;;;;;19.04;77.70;99761.03;10346889;28;20245;-75
2021/07/13 08:13:00;;;;;;;14.70;10.77;;;;;;;19.24;77.34;99749.25;10348392;28;20589;-75
2021/07/13 08:18:04;;;;;;;18.80;11.77;;;;;;;19.35;76.69;99747.06;10349825;28;20249;-75
2021/07/13 08:23:08;;;;;;;15.93;11.32;;;;;;;19.37;77.37;99761.31;10355895;28;20234;-74
2021/07/13 08:28:11;;;;;;;18.10;12.38;;;;;;;19.57;78.02;99766.94;10355030;28;20625;-74
2021/07/13 08:33:14;;;;;;;22.63;14.05;;;;;;;19.75;79.01;99774.63;10353569;28;20309;-76
2021/07/13 08:38:18;;;;;;;19.70;13.48;;;;;;;20.00;80.01;99777.72;10352547;28;20242;-75
2021/07/13 08:43:23;;;;;;;24.55;14.50;;;;;;;19.94;77.23;99775.78;10352372;28;20239;-75
2021/07/13 08:48:27;;;;;;;23.35;14.98;;;;;;;19.79;79.30;99775.91;10328868;28;20235;-76
2021/07/13 08:53:31;;;;;;;25.30;16.63;;;;;;;19.97;79.81;99784.41;10313021;28;20238;-75
2021/07/13 08:58:34;;;;;;;23.45;14.27;;;;;;;19.72;81.09;99784.03;10313785;28;20227;-74
2021/07/13 09:03:52;;;;;;;28.45;17.90;;;;;;;19.21;80.86;99784.22;10296489;28;20628;-75
2021/07/13 09:08:56;;;;;;;25.02;17.00;;;;;;;19.63;82.91;99775.16;10313438;28;20730;-75
2021/07/13 09:14:04;;;;;;;26.30;16.95;;;;;;;19.77;82.52;99781.53;10314075;28;20243;-74
2021/07/13 09:19:07;;;;;;;27.05;17.38;;;;;;;20.18;84.15;99782.63;10312297;28;20634;-74
2021/07/13 09:24:15;;;;;;;25.02;16.42;;;;;;;20.27;84.11;99781.44;10313046;28;20743;-75
2021/07/13 09:29:35;;;;;;;24.98;17.65;;;;;;;20.07;85.02;99782.16;10313306;28;20239;-74
2021/07/13 09:34:39;;;;;;;29.23;18.30;;;;;;;20.10;87.28;99800.84;10274170;28;20231;-75
2021/07/13 09:39:55;;;;;;;29.00;18.00;;;;;;;20.22;87.94;99792.09;10275038;28;20247;-73
2021/07/13 09:45:21;;;;;;;25.35;18.10;;;;;;;20.37;87.85;99786.53;10273851;28;20258;-74
2021/07/13 09:50:36;;;;;;;31.88;19.75;;;;;;;20.18;87.58;99785.34;10267362;28;20239;-74
2021/07/13 09:55:41;;;;;;;27.35;19.20;;;;;;;20.16;88.11;99785.56;10272779;28;20357;-74
2021/07/13 10:00:46;;;;;;;32.85;20.52;;;;;;;20.24;88.52;99790.88;10285616;28;20736;-74
2021/07/13 10:05:50;;;;;;;30.98;20.20;;;;;;;20.31;88.63;99793.63;10296216;28;20247;-74
2021/07/13 10:10:55;;;;;;;32.05;19.77;;;;;;;20.33;88.62;99784.22;10306225;28;20269;-74
2021/07/13 10:15:58;;;;;;;28.08;19.02;;;;;;;20.09;85.29;99787.41;10342207;28;20242;-73
2021/07/13 10:21:02;;;;;;;30.48;20.13;;;;;;;20.10;88.60;99780.91;10352127;28;20234;-74
2021/07/13 10:26:10;;;;;;;29.98;20.73;;;;;;;20.53;88.12;99778.84;10349269;28;20261;-73
2021/07/13 10:31:13;;;;;;;32.88;22.02;;;;;;;20.75;88.10;99778.69;10325740;28;20246;-73
2021/07/13 10:36:31;;;;;;;33.60;21.73;;;;;;;20.68;85.46;99772.38;10319983;28;20243;-73
2021/07/13 10:41:35;;;;;;;35.45;23.25;;;;;;;20.84;87.07;99771.16;10313450;28;20325;-74
2021/07/13 10:46:38;;;;;;;31.38;21.30;;;;;;;20.97;81.39;99784.84;10328267;28;20239;-74
2021/07/13 10:51:41;;;;;;;31.58;22.05;;;;;;;21.13;82.85;99787.22;10313633;28;20231;-73
2021/07/13 10:56:46;;;;;;;26.58;19.70;;;;;;;21.28;81.25;99795.19;10310969;28;21545;-74
2021/07/13 11:02:09;;;;;;;30.42;19.92;;;;;;;21.40;83.16;99789.97;10326617;28;21837;-73
2021/07/13 11:07:12;;;;;;;28.92;20.08;;;;;;;21.83;84.37;99801.34;10351166;28;20715;-73
2021/07/13 11:12:17;;;;;;;27.88;20.48;;;;;;;21.83;84.18;99790.41;10351875;28;20229;-74
2021/07/13 11:17:22;;;;;;;30.60;20.88;;;;;;;21.44;82.90;99794.78;10352249;28;20230;-74
2021/07/13 11:22:25;;;;;;;28.02;20.77;;;;;;;21.53;83.99;99792.69;10351041;28;20242;-74
2021/07/13 11:27:29;;;;;;;34.55;20.10;;;;;;;21.60;83.69;99784.50;10352552;28;20246;-74
2021/07/13 11:32:32;;;;;;;27.48;20.27;;;;;;;21.62;83.36;99790.59;10348151;28;20242;-74
2021/07/13 11:37:35;;;;;;;27.60;19.55;;;;;;;21.49;83.08;99796.06;10320733;28;20338;-74
2021/07/13 11:42:39;;;;;;;27.42;19.27;;;;;;;21.35;83.22;99789.75;10351408;28;20303;-75
2021/07/13 11:47:43;;;;;;;28.08;20.55;;;;;;;21.34;83.35;99779.88;10351145;28;20231;-73
2021/07/13 11:52:46;;;;;;;27.92;21.05;;;;;;;21.31;83.03;99793.94;10348135;28;20237;-73
2021/07/13 11:57:51;;;;;;;29.48;20.70;;;;;;;21.19;82.75;99797.28;10350227;28;20237;-74
2021/07/13 12:02:55;;;;;;;28.92;21.40;;;;;;;21.34;83.63;99807.19;10340139;28;20261;-74
2021/07/13 12:07:57;;;;;;;30.50;21.70;;;;;;;21.44;83.97;99796.69;10295401;28;20251;-74
2021/07/13 12:13:03;;;;;;;29.45;20.92;;;;;;;21.70;84.07;99784.91;10306493;28;20231;-74
2021/07/13 12:18:06;;;;;;;30.15;21.00;;;;;;;21.85;83.05;99792.91;10305939;28;20239;-76
2021/07/13 12:23:09;;;;;;;29.90;19.55;;;;;;;22.02;83.49;99791.41;10305850;28;20230;-76
2021/07/13 12:28:14;;;;;;;24.48;19.17;;;;;;;22.14;82.45;99794.31;10306501;28;20758;-76
2021/07/13 12:33:22;;;;;;;26.30;21.17;;;;;;;22.25;82.24;99781.88;10307405;28;20226;-76
2021/07/13 12:38:27;;;;;;;25.65;19.52;;;;;;;22.28;81.33;99784.19;10310704;28;20257;-76
2021/07/13 12:43:31;;;;;;;27.42;20.52;;;;;;;22.30;81.19;99787.53;10308423;28;20239;-76
2021/07/13 12:48:36;;;;;;;25.65;20.00;;;;;;;22.45;81.49;99779.94;10307622;28;20628;-76
2021/07/13 12:53:39;;;;;;;25.95;20.35;;;;;;;22.57;80.59;99785.53;10292304;28;20234;-76
2021/07/13 12:58:45;;;;;;;27.17;22.35;;;;;;;22.59;79.84;99790.81;10308903;28;20243;-76
2021/07/13 13:03:48;;;;;;;26.52;21.50;;;;;;;22.46;76.76;99788.97;10309671;28;20717;-76
2021/07/13 13:08:51;;;;;;;27.58;21.92;;;;;;;22.53;79.62;99785.16;10314722;28;20235;-75
2021/07/13 13:14:02;;;;;;;30.95;22.25;;;;;;;22.84;76.20;99789.00;10313903;28;20234;-76
2021/07/13 13:19:08;;;;;;;28.80;21.45;;;;;;;23.42;75.62;99785.25;10313004;28;20236;-76
2021/07/13 13:24:14;;;;;;;28.42;23.00;;;;;;;23.62;72.60;99785.09;10312741;28;20238;-76
2021/07/13 13:29:19;;;;;;;27.00;21.05;;;;;;;23.36;71.57;99786.97;10313040;28;20231;-76
2021/07/13 13:34:23;;;;;;;25.33;20.13;;;;;;;23.25;69.55;99787.69;10331308;28;20924;-77
2021/07/13 13:39:28;;;;;;;21.58;18.05;;;;;;;23.38;69.81;99792.25;10325221;28;20385;-76
2021/07/13 13:44:32;;;;;;;19.52;15.60;;;;;;;23.60;70.98;99785.31;10326761;28;20321;-77
2021/07/13 13:49:36;;;;;;;18.70;16.17;;;;;;;23.70;68.89;99789.47;10314067;28;20242;-77
2021/07/13 13:54:38;;;;;;;16.85;15.05;;;;;;;24.09;67.85;99780.84;10312817;28;20231;-75
2021/07/13 13:59:43;;;;;;;20.02;14.63;;;;;;;25.05;64.82;99785.81;10315495;28;20227;-76
2021/07/13 14:04:46;;;;;;;17.13;15.10;;;;;;;25.74;62.62;99769.69;10313574;28;20326;-76
2021/07/13 14:09:50;;;;;;;17.58;14.45;;;;;;;25.38;62.47;99769.63;10313307;28;20611;-76
2021/07/13 14:15:15;;;;;;;21.58;14.80;;;;;;;25.88;60.30;99775.78;10312133;28;20304;-77
2021/07/13 14:20:18;;;;;;;16.23;14.07;;;;;;;26.66;56.25;99768.94;10298401;28;20912;-76
2021/07/13 14:25:21;;;;;;;17.98;13.55;;;;;;;27.49;55.34;99770.19;10312589;28;20238;-77
2021/07/13 14:30:26;;;;;;;16.63;14.10;;;;;;;28.49;52.49;99767.47;10309748;28;20247;-75
2021/07/13 14:35:29;;;;;;;15.52;13.65;;;;;;;28.58;50.12;99763.22;10216129;28;20940;-76
2021/07/13 14:40:33;;;;;;;15.68;13.95;;;;;;;28.52;51.17;99766.97;10276318;28;20231;-76
2021/07/13 14:45:37;;;;;;;16.88;14.35;;;;;;;30.39;47.81;99772.69;10315078;28;20910;-76
2021/07/13 14:50:44;;;;;;;17.27;13.13;;;;;;;30.62;45.08;99772.25;10314035;28;20237;-77
2021/07/13 14:55:49;;;;;;;14.88;12.90;;;;;;;29.08;48.07;99761.25;10314801;28;20231;-77
2021/07/13 15:00:53;;;;;;;13.23;11.82;;;;;;;27.68;50.78;99767.19;10316038;28;20238;-77
2021/07/13 15:05:56;;;;;;;12.10;10.90;;;;;;;26.45;53.83;99759.44;10317067;28;20925;-77
2021/07/13 15:11:01;;;;;;;13.38;11.68;;;;;;;25.12;56.46;99762.66;10316611;28;20247;-76
2021/07/13 15:16:06;;;;;;;13.25;11.20;;;;;;;24.32;58.96;99768.34;10312688;28;20231;-77
2021/07/13 15:21:09;;;;;;;13.48;10.93;;;;;;;23.99;60.00;99768.72;10321400;28;20230;-77
2021/07/13 15:26:32;;;;;;;12.82;11.38;;;;;;;23.92;61.65;99773.47;10355133;28;20258;-76
2021/07/13 15:31:36;;;;;;;15.45;11.68;;;;;;;23.83;62.92;99762.78;10357348;28;20250;-77
2021/07/13 15:36:40;;;;;;;15.05;12.95;;;;;;;23.90;63.70;99756.38;10360457;28;20268;-76
2021/07/13 15:41:43;;;;;;;15.57;13.98;;;;;;;24.14;62.66;99754.66;10343784;28;20273;-77
2021/07/13 15:46:47;;;;;;;18.23;15.25;;;;;;;24.26;62.93;99752.78;10360884;28;21556;-77
2021/07/13 15:51:52;;;;;;;18.83;15.07;;;;;;;24.26;63.36;99739.91;10359661;28;20252;-76
2021/07/13 15:56:55;;;;;;;20.90;17.58;;;;;;;24.87;61.91;99745.47;10358853;28;20276;-77
2021/07/13 16:01:59;;;;;;;22.35;17.17;;;;;;;26.18;58.31;99737.91;10346505;28;20246;-77
2021/07/13 16:07:03;;;;;;;22.02;18.15;;;;;;;27.65;53.87;99740.94;10309695;28;20246;-74
2021/07/13 16:12:08;;;;;;;23.15;17.83;;;;;;;28.54;50.88;99742.72;10319808;28;20243;-77
2021/07/13 16:17:12;;;;;;;24.23;18.45;;;;;;;28.14;51.61;99731.97;10329704;28;20234;-77
2021/07/13 16:22:16;;;;;;;24.15;20.60;;;;;;;26.97;53.38;99736.47;10321415;28;20226;-77
2021/07/13 16:27:19;;;;;;;23.85;19.85;;;;;;;28.39;51.68;99728.72;10318167;28;20250;-77
2021/07/13 16:32:23;;;;;;;24.10;20.38;;;;;;;29.74;48.24;99745.22;10326666;28;20258;-77
2021/07/13 16:37:26;;;;;;;25.50;21.50;;;;;;;29.91;47.57;99749.75;10322381;28;20334;-75
2021/07/13 16:42:29;;;;;;;26.98;21.95;;;;;;;29.08;48.87;99752.97;10333809;28;20239;-76
2021/07/13 16:47:33;;;;;;;25.33;21.20;;;;;;;30.20;46.68;99742.72;10332622;28;20245;-75
2021/07/13 16:52:37;;;;;;;25.38;22.13;;;;;;;29.29;49.38;99752.06;10329974;28;20380;-77
2021/07/13 16:57:54;;;;;;;25.67;21.60;;;;;;;29.86;47.28;99761.59;10331946;28;20243;-76
2021/07/13 17:02:58;;;;;;;26.33;23.50;;;;;;;28.78;49.29;99751.53;10330043;28;20234;-76
2021/07/13 17:08:01;;;;;;;27.73;24.70;;;;;;;27.04;53.50;99739.88;10331592;28;20246;-77
2021/07/13 17:13:04;;;;;;;30.35;24.45;;;;;;;25.90;56.44;99741.44;10313841;28;20235;-76
2021/07/13 17:18:09;;;;;;;28.77;23.02;;;;;;;25.37;58.15;99751.47;10308656;28;20250;-76
2021/07/13 17:23:12;;;;;;;31.08;22.98;;;;;;;25.08;59.08;99755.09;10337473;28;20237;-76
2021/07/13 17:28:15;;;;;;;28.20;23.70;;;;;;;25.04;59.67;99752.00;10354711;28;20239;-76
2021/07/13 17:33:19;;;;;;;29.45;22.88;;;;;;;25.77;59.20;99745.28;10327597;28;20230;-76
2021/07/13 17:38:22;;;;;;;25.88;21.50;;;;;;;30.02;49.81;99732.09;10313646;28;20238;-76
2021/07/13 17:43:25;;;;;;;25.35;21.58;;;;;;;31.83;43.45;99734.94;10311646;28;20227;-76
2021/07/13 17:48:36;;;;;;;22.42;19.88;;;;;;;29.28;46.94;99741.25;10319510;28;20231;-76
2021/07/13 17:53:39;;;;;;;28.23;22.23;;;;;;;26.66;53.50;99752.41;10311813;28;20234;-76
2021/07/13 17:58:42;;;;;;;27.25;22.55;;;;;;;25.16;57.97;99747.38;10314120;28;21362;-76
2021/07/13 18:03:46;;;;;;;27.77;23.92;;;;;;;24.52;60.37;99744.25;10314073;28;20611;-76
2021/07/13 18:08:49;;;;;;;31.45;25.38;;;;;;;24.10;62.15;99751.50;10310263;28;20235;-76
2021/07/13 18:13:53;;;;;;;32.95;25.85;;;;;;;23.70;63.73;99754.66;10304394;28;20238;-75
2021/07/13 18:18:59;;;;;;;34.13;25.60;;;;;;;23.45;64.35;99757.41;10353106;28;20616;-76
2021/07/13 18:24:02;;;;;;;32.78;24.90;;;;;;;23.25;64.98;99756.72;10353664;28;20234;-76
2021/07/13 18:29:05;;;;;;;31.70;25.55;;;;;;;23.18;65.39;99768.59;10351677;28;20758;-75
2021/07/13 18:34:09;;;;;;;34.55;26.85;;;;;;;23.14;65.70;99769.25;10354812;28;20241;-76
2021/07/13 18:39:12;;;;;;;33.70;26.38;;;;;;;23.00;66.65;99761.09;10358628;28;20623;-76
2021/07/13 18:44:15;;;;;;;33.75;26.83;;;;;;;22.97;67.04;99764.25;10358919;28;20261;-75
2021/07/13 18:49:19;;;;;;;33.55;28.05;;;;;;;22.88;67.59;99756.56;10336961;28;20232;-76
2021/07/13 18:54:22;;;;;;;33.50;26.73;;;;;;;22.86;67.96;99758.66;10292721;28;20231;-76
2021/07/13 18:59:25;;;;;;;33.58;28.38;;;;;;;22.77;68.68;99755.34;10311015;28;20242;-76
2021/07/13 19:04:29;;;;;;;38.45;31.35;;;;;;;22.63;69.20;99751.84;10311405;28;20264;-75
2021/07/13 19:09:32;;;;;;;40.60;31.55;;;;;;;22.46;70.15;99746.06;10310314;28;20235;-76
2021/07/13 19:14:35;;;;;;;41.00;30.38;;;;;;;22.28;70.80;99746.72;10310541;28;20226;-76
2021/07/13 19:19:40;;;;;;;45.80;34.00;;;;;;;22.16;71.39;99731.19;10309452;28;20262;-75
2021/07/13 19:24:42;;;;;;;48.05;34.90;;;;;;;22.04;71.98;99733.75;10309541;28;20227;-75
2021/07/13 19:29:45;;;;;;;49.30;35.95;;;;;;;21.92;72.45;99725.41;10309001;28;20231;-76
2021/07/13 19:35:13;;;;;;;48.55;35.97;;;;;;;21.88;72.73;99735.06;10308083;28;20223;-75
2021/07/13 19:40:19;;;;;;;52.22;39.08;;;;;;;21.82;72.80;99741.38;10334527;28;20222;-76
2021/07/13 19:45:22;;;;;;;46.40;35.13;;;;;;;21.78;72.76;99740.16;10334672;28;20234;-76
2021/07/13 19:50:26;;;;;;;47.63;35.60;;;;;;;21.67;72.81;99747.91;10309245;28;20390;-76
2021/07/13 19:55:29;;;;;;;45.55;33.60;;;;;;;21.64;72.55;99747.50;10308299;28;20591;-76
2021/07/13 20:00:32;;;;;;;45.60;33.80;;;;;;;21.52;73.34;99750.03;10307455;28;20230;-74
2021/07/13 20:05:36;;;;;;;44.60;34.40;;;;;;;21.47;73.11;99765.38;10310687;28;20246;-74
2021/07/13 20:10:39;;;;;;;43.83;32.80;;;;;;;21.38;73.52;99779.22;10309655;28;20612;-75
2021/07/13 20:15:42;;;;;;;43.95;32.65;;;;;;;21.33;73.79;99768.09;10312226;28;20245;-74
2021/07/13 20:20:47;;;;;;;43.30;31.85;;;;;;;21.27;73.84;99781.75;10316066;28;20353;-74
2021/07/13 20:25:50;;;;;;;39.63;30.10;;;;;;;21.19;74.05;99775.44;10313033;28;20251;-75
2021/07/13 20:30:52;;;;;;;38.40;29.00;;;;;;;21.17;74.06;99768.50;10315792;28;20243;-75
2021/07/13 20:35:57;;;;;;;37.30;28.15;;;;;;;21.12;74.07;99768.31;10318853;28;20723;-75
2021/07/13 20:41:00;;;;;;;34.28;26.33;;;;;;;21.01;73.93;99759.66;10316085;28;20242;-75
2021/07/13 20:46:04;;;;;;;35.75;26.38;;;;;;;21.02;74.11;99763.22;10312768;28;20618;-74
2021/07/13 20:51:09;;;;;;;35.47;25.58;;;;;;;20.95;74.39;99740.50;10313697;28;20270;-74
2021/07/13 20:56:12;;;;;;;37.85;26.42;;;;;;;20.86;74.30;99748.06;10311127;28;20242;-75
2021/07/13 21:01:15;;;;;;;38.55;26.70;;;;;;;20.84;74.52;99750.16;10311587;28;20254;-75
2021/07/13 21:06:19;;;;;;;35.67;26.10;;;;;;;20.78;74.87;99759.19;10309317;28;20251;-75
2021/07/13 21:11:22;;;;;;;35.75;26.67;;;;;;;20.74;74.99;99766.09;10308693;28;20594;-74
2021/07/13 21:16:25;;;;;;;35.70;26.30;;;;;;;20.67;75.11;99757.88;10295899;28;20251;-74
2021/07/13 21:21:29;;;;;;;36.42;26.33;;;;;;;20.64;75.02;99758.31;10296170;28;20841;-73
2021/07/13 21:26:33;;;;;;;34.28;25.83;;;;;;;20.61;75.24;99766.06;10331903;28;20248;-73
2021/07/13 21:31:37;;;;;;;32.58;24.70;;;;;;;20.54;75.33;99768.75;10356069;28;20751;-74
2021/07/13 21:36:53;;;;;;;32.05;23.25;;;;;;;20.46;74.95;99767.06;10352667;28;20243;-74
2021/07/13 21:54:46;;;;;;;29.02;20.15;;;;;;;20.33;74.72;99769.75;10349871;28;20222;-74
2021/07/13 21:59:49;;;;;;;25.52;19.73;;;;;;;20.30;74.87;99753.75;10349462;28;20316;-74
2021/07/13 22:04:53;;;;;;;27.35;20.33;;;;;;;20.22;74.92;99751.19;10349971;28;20317;-74
2021/07/13 22:09:59;;;;;;;25.35;20.02;;;;;;;20.18;75.11;99752.63;10331227;28;20241;-74
2021/07/13 22:15:02;;;;;;;27.70;20.48;;;;;;;20.16;74.85;99749.25;10351059;28;20288;-74
2021/07/13 22:20:07;;;;;;;28.05;19.65;;;;;;;20.15;74.96;99748.44;10350932;28;20346;-74
2021/07/13 22:25:12;;;;;;;27.27;20.05;;;;;;;20.11;75.17;99749.88;10350039;28;20249;-74
2021/07/13 22:30:16;;;;;;;28.15;20.20;;;;;;;20.06;75.34;99747.75;10366308;28;20726;-74
2021/07/13 22:35:19;;;;;;;27.60;20.77;;;;;;;20.04;75.29;99743.56;10350159;28;20378;-74
2021/07/13 22:40:25;;;;;;;30.65;21.63;;;;;;;20.00;75.36;99732.22;10330590;28;20300;-74
2021/07/13 22:45:28;;;;;;;28.48;21.83;;;;;;;19.99;75.53;99729.69;10349470;28;20245;-74
2021/07/13 22:50:31;;;;;;;28.83;21.73;;;;;;;19.94;75.93;99727.59;10350774;28;20797;-74
2021/07/13 22:55:35;;;;;;;33.28;23.48;;;;;;;19.90;75.95;99732.56;10332877;28;20246;-74
2021/07/13 23:00:38;;;;;;;31.17;22.25;;;;;;;19.84;76.00;99719.75;10349260;28;20231;-74
2021/07/13 23:05:41;;;;;;;38.35;25.42;;;;;;;19.76;76.20;99719.09;10348643;28;20787;-74
2021/07/13 23:10:45;;;;;;;34.42;24.83;;;;;;;19.76;76.58;99738.16;10349516;28;20266;-74
2021/07/13 23:15:56;;;;;;;39.92;25.75;;;;;;;19.80;76.30;99747.59;10350742;28;20234;-74
2021/07/13 23:20:59;;;;;;;37.38;25.38;;;;;;;19.79;76.52;99743.22;10350261;28;20281;-74